createdAt,value
2022-11-28T00:01:23.818Z,65.20
2022-11-28T00:03:51.535Z,63.80
2022-11-28T00:06:19.600Z,64.50
2022-11-28T00:08:47.554Z,61.80
2022-11-28T00:11:16.439Z,61.50
2022-11-28T00:13:45.154Z,61.10
2022-11-28T00:16:21.356Z,62.80
2022-11-28T00:18:50.306Z,63.90
2022-11-28T00:21:18.454Z,69.60
2022-11-28T00:23:47.527Z,75.60
2022-11-28T00:26:15.125Z,66.60
2022-11-28T00:28:43.168Z,67.40
2022-11-28T00:31:19.350Z,73.90
2022-11-28T00:33:47.364Z,66.50
2022-11-28T00:36:15.828Z,63.60
2022-11-28T00:38:43.743Z,64.80
2022-11-28T00:41:14.041Z,63.20
2022-11-28T00:43:42.623Z,63.80
2022-11-28T00:46:11.051Z,62.80
2022-11-28T00:48:38.910Z,64.70
2022-11-28T00:51:19.559Z,64.80
2022-11-28T00:53:48.834Z,66.40
2022-11-28T00:56:19.456Z,61.30
2022-11-28T00:58:49.652Z,65.30
2022-11-28T01:01:18.963Z,63.50
2022-11-28T01:03:48.300Z,62.70
2022-11-28T01:06:25.049Z,64.70
2022-11-28T01:08:52.928Z,64.70
2022-11-28T01:11:21.569Z,66.70
2022-11-28T01:13:49.721Z,72.50
2022-11-28T01:16:17.603Z,71.90
2022-11-28T01:18:45.427Z,62.70
2022-11-28T01:21:13.114Z,63.20
2022-11-28T01:23:40.727Z,61.30
2022-11-28T01:26:09.556Z,60.80
2022-11-28T01:28:37.173Z,63.50
2022-11-28T01:31:06.548Z,62.80
2022-11-28T01:33:34.361Z,64.50
2022-11-28T01:36:02.359Z,64.70
2022-11-28T01:38:30.207Z,61.50
2022-11-28T01:40:58.185Z,64.10
2022-11-28T01:43:25.944Z,61.70
2022-11-28T01:45:54.154Z,67.50
2022-11-28T01:48:27.849Z,70.10
2022-11-28T01:51:00.437Z,74.10
2022-11-28T01:53:33.521Z,68.80
2022-11-28T01:56:06.135Z,66.60
2022-11-28T01:58:35.207Z,67.80
2022-11-28T02:01:04.177Z,69.70
2022-11-28T02:03:38.529Z,74.00
2022-11-28T02:06:06.349Z,77.90
2022-11-28T02:08:35.419Z,66.10
2022-11-28T02:11:12.103Z,70.70
2022-11-28T02:13:44.579Z,67.60
2022-11-28T02:16:30.583Z,63.50
2022-11-28T02:19:11.137Z,66.40
2022-11-28T02:21:46.599Z,63.00
2022-11-28T02:24:33.268Z,61.20
2022-11-28T02:27:19.641Z,59.80
2022-11-28T02:30:07.099Z,56.40
2022-11-28T02:32:55.482Z,73.60
2022-11-28T02:35:29.312Z,60.30
2022-11-28T02:38:09.506Z,55.70
2022-11-28T02:40:49.206Z,55.50
2022-11-28T02:43:48.111Z,55.90
2022-11-28T02:46:40.869Z,58.80
2022-11-28T02:49:13.560Z,56.80
2022-11-28T02:51:56.800Z,56.20
2022-11-28T02:54:25.041Z,56.90
2022-11-28T02:56:54.028Z,57.40
2022-11-28T02:59:37.110Z,55.70
2022-11-28T03:02:28.993Z,55.40
2022-11-28T03:05:08.879Z,60.70
2022-11-28T03:08:01.488Z,62.50
2022-11-28T03:10:38.046Z,67.60
2022-11-28T03:13:30.558Z,62.10
2022-11-28T03:16:24.914Z,65.70
2022-11-28T03:18:55.285Z,70.80
2022-11-28T03:21:30.629Z,73.10
2022-11-28T03:24:01.452Z,72.40
2022-11-28T03:26:55.412Z,78.40
2022-11-28T03:29:34.465Z,73.70
2022-11-28T03:32:07.847Z,73.00
2022-11-28T03:34:38.781Z,74.30
2022-11-28T03:37:23.907Z,68.70
2022-11-28T03:39:59.148Z,70.90
2022-11-28T03:42:30.061Z,69.70
2022-11-28T03:45:03.988Z,70.00
2022-11-28T03:47:35.405Z,69.50
2022-11-28T03:50:07.027Z,60.00
2022-11-28T03:52:45.755Z,60.30
2022-11-28T03:55:18.769Z,58.60
2022-11-28T03:57:57.217Z,60.20
2022-11-28T04:00:25.184Z,60.00
2022-11-28T04:03:02.913Z,61.50
2022-11-28T04:05:48.839Z,65.70
2022-11-28T04:08:32.959Z,60.90
2022-11-28T04:11:07.852Z,64.50
2022-11-28T04:13:49.749Z,60.70
2022-11-28T04:16:56.057Z,62.50
2022-11-28T04:19:29.539Z,59.50
2022-11-28T04:22:04.362Z,57.50
2022-11-28T04:24:35.234Z,57.70
2022-11-28T04:27:06.615Z,57.80
2022-11-28T04:29:45.684Z,57.20
2022-11-28T04:32:14.704Z,57.20
2022-11-28T04:34:44.588Z,55.00
2022-11-28T04:37:14.911Z,58.60
2022-11-28T04:39:45.272Z,57.00
2022-11-28T04:42:19.369Z,62.40
2022-11-28T04:44:49.837Z,63.10
2022-11-28T04:47:17.944Z,63.80
2022-11-28T04:49:45.992Z,65.80
2022-11-28T04:52:53.414Z,65.10
2022-11-28T04:55:35.503Z,67.10
2022-11-28T04:58:23.036Z,62.50
2022-11-28T05:00:53.093Z,65.00
2022-11-28T05:03:21.250Z,66.30
2022-11-28T05:05:51.444Z,63.60
2022-11-28T05:08:19.731Z,61.20
2022-11-28T05:10:47.475Z,60.40
2022-11-28T05:13:15.451Z,59.00
2022-11-28T05:15:43.250Z,57.50
2022-11-28T05:18:11.113Z,56.90
2022-11-28T05:20:39.118Z,55.10
2022-11-28T05:23:06.943Z,56.80
2022-11-28T05:25:34.726Z,55.20
2022-11-28T05:28:02.366Z,54.90
2022-11-28T05:30:30.001Z,53.70
2022-11-28T05:32:59.306Z,53.40
2022-11-28T05:35:27.653Z,55.20
2022-11-28T05:37:55.404Z,52.00
2022-11-28T05:40:23.156Z,50.00
2022-11-28T05:42:50.829Z,50.30
2022-11-28T05:45:18.417Z,49.70
2022-11-28T05:47:46.068Z,46.70
2022-11-28T05:50:13.718Z,48.00
2022-11-28T05:52:41.318Z,46.20
2022-11-28T05:55:09.295Z,47.20
2022-11-28T05:57:36.968Z,46.60
2022-11-28T06:00:05.212Z,44.90
2022-11-28T06:02:39.333Z,45.60
2022-11-28T06:05:27.366Z,45.70
2022-11-28T06:07:55.070Z,45.10
2022-11-28T06:10:22.851Z,45.50
2022-11-28T06:12:50.489Z,43.60
2022-11-28T06:15:18.203Z,43.10
2022-11-28T06:17:45.817Z,44.80
2022-11-28T06:20:13.625Z,42.30
2022-11-28T06:22:41.235Z,44.30
2022-11-28T06:25:08.911Z,45.10
2022-11-28T06:27:36.531Z,43.90
2022-11-28T06:30:07.113Z,45.40
2022-11-28T06:32:35.799Z,45.50
2022-11-28T06:35:03.620Z,45.70
2022-11-28T06:37:31.242Z,44.60
2022-11-28T06:39:59.229Z,48.10
2022-11-28T06:42:26.857Z,43.50
2022-11-28T06:44:54.441Z,47.50
2022-11-28T06:47:22.269Z,51.60
2022-11-28T06:49:49.879Z,50.20
2022-11-28T06:52:17.522Z,49.40
2022-11-28T06:54:45.230Z,49.90
2022-11-28T06:57:13.024Z,52.60
2022-11-28T06:59:40.894Z,51.10
2022-11-28T07:02:10.987Z,52.50
2022-11-28T07:04:38.682Z,53.30
2022-11-28T07:07:06.388Z,48.80
2022-11-28T07:09:34.013Z,53.00
2022-11-28T07:12:01.810Z,47.70
2022-11-28T07:14:32.971Z,51.40
2022-11-28T07:17:01.013Z,47.40
2022-11-28T07:19:28.700Z,47.70
2022-11-28T07:21:56.310Z,48.60
2022-11-28T07:24:24.180Z,44.00
2022-11-28T07:26:51.824Z,43.00
2022-11-28T07:29:19.553Z,49.20
2022-11-28T07:31:47.252Z,42.00
2022-11-28T07:34:14.959Z,41.70
2022-11-28T07:36:42.821Z,40.90
2022-11-28T07:39:13.955Z,42.20
2022-11-28T07:41:41.559Z,42.10
2022-11-28T07:44:09.792Z,39.50
2022-11-28T07:46:38.686Z,40.70
2022-11-28T07:49:06.409Z,39.70
2022-11-28T07:51:34.428Z,40.90
2022-11-28T07:54:04.675Z,42.30
2022-11-28T07:57:04.601Z,42.30
2022-11-28T07:59:22.798Z,44.30
2022-11-28T08:01:50.683Z,43.40
2022-11-28T08:04:19.329Z,45.60
2022-11-28T08:06:47.053Z,44.60
2022-11-28T08:09:14.817Z,45.20
2022-11-28T08:11:43.024Z,44.50
2022-11-28T08:14:10.976Z,45.40
2022-11-28T08:16:41.281Z,46.90
2022-11-28T08:19:09.032Z,46.00
2022-11-28T08:21:37.536Z,46.40
2022-11-28T08:24:06.186Z,48.40
2022-11-28T08:26:34.380Z,46.70
2022-11-28T08:29:02.682Z,47.30
2022-11-28T08:31:32.859Z,46.90
2022-11-28T08:34:02.120Z,48.60
2022-11-28T08:36:29.826Z,47.50
2022-11-28T08:41:47.672Z,49.20
2022-11-28T08:44:16.100Z,51.80
2022-11-28T08:46:43.952Z,52.40
2022-11-28T08:49:11.638Z,51.20
2022-11-28T08:51:39.236Z,52.10
2022-11-28T08:54:06.899Z,49.40
2022-11-28T08:56:34.660Z,49.60
2022-11-28T08:59:02.407Z,50.70
2022-11-28T09:01:30.220Z,52.70
2022-11-28T09:03:58.823Z,49.50
2022-11-28T09:06:26.542Z,49.10
2022-11-28T09:08:54.137Z,51.40
2022-11-28T09:11:22.910Z,48.00
2022-11-28T09:13:51.087Z,50.30
2022-11-28T09:16:18.851Z,49.00
2022-11-28T09:18:46.870Z,46.70
2022-11-28T09:21:15.466Z,46.60
2022-11-28T09:23:44.691Z,47.80
2022-11-28T09:26:18.065Z,50.10
2022-11-28T09:28:45.821Z,45.50
2022-11-28T09:31:15.123Z,45.40
2022-11-28T09:33:43.680Z,44.30
2022-11-28T09:36:17.337Z,44.90
2022-11-28T09:38:45.421Z,43.40
2022-11-28T09:41:25.043Z,43.50
2022-11-28T09:43:55.234Z,41.20
2022-11-28T09:46:33.086Z,41.50
2022-11-28T09:49:04.967Z,42.40
2022-11-28T09:51:47.593Z,42.40
2022-11-28T09:54:25.358Z,43.20
2022-11-28T09:56:53.088Z,42.30
2022-11-28T09:59:28.516Z,42.20
2022-11-28T10:02:34.828Z,41.90
2022-11-28T10:05:36.433Z,40.50
2022-11-28T10:08:22.424Z,38.90
2022-11-28T10:11:24.512Z,39.90
2022-11-28T10:14:09.838Z,38.40
2022-11-28T10:17:02.676Z,37.20
2022-11-28T10:19:57.302Z,37.60
2022-11-28T10:22:40.793Z,35.10
2022-11-28T10:25:29.482Z,36.40
2022-11-28T10:27:57.862Z,35.30
2022-11-28T10:30:34.216Z,36.90
2022-11-28T10:33:01.929Z,36.30
2022-11-28T10:35:44.119Z,35.50
2022-11-28T10:38:14.696Z,34.90
2022-11-28T10:40:50.015Z,34.30
2022-11-28T10:43:23.820Z,34.00
2022-11-28T10:46:02.885Z,34.20
2022-11-28T10:48:48.427Z,32.80
2022-11-28T10:51:24.275Z,32.30
2022-11-28T10:54:10.512Z,32.30
2022-11-28T10:56:47.728Z,31.90
2022-11-28T10:59:44.339Z,35.10
2022-11-28T11:02:40.450Z,34.50
2022-11-28T11:05:14.643Z,35.40
2022-11-28T11:07:57.689Z,35.90
2022-11-28T11:10:33.788Z,38.10
2022-11-28T11:13:14.477Z,38.20
2022-11-28T11:15:42.287Z,39.00
2022-11-28T11:18:25.862Z,39.10
2022-11-28T11:21:17.998Z,39.60
2022-11-28T11:23:46.636Z,40.90
2022-11-28T11:26:23.791Z,40.40
2022-11-28T11:28:52.265Z,38.30
2022-11-28T11:31:23.687Z,39.60
2022-11-28T11:34:16.015Z,42.20
2022-11-28T11:36:43.800Z,38.90
2022-11-28T11:39:23.468Z,39.80
2022-11-28T11:42:13.771Z,42.00
2022-11-28T11:44:45.349Z,43.30
2022-11-28T11:47:13.115Z,41.90
2022-11-28T11:49:44.106Z,43.40
2022-11-28T11:52:12.907Z,43.60
2022-11-28T11:54:54.835Z,44.10
2022-11-28T11:57:33.120Z,45.40
2022-11-28T12:00:22.928Z,47.10
2022-11-28T12:03:17.478Z,47.40
2022-11-28T12:09:23.330Z,51.90
2022-11-28T12:11:55.208Z,51.50
2022-11-28T12:14:32.753Z,53.10
2022-11-28T12:17:48.793Z,54.50
2022-11-28T12:20:48.962Z,55.00
2022-11-28T12:23:39.358Z,56.90
2022-11-28T12:26:37.901Z,56.50
2022-11-28T12:29:22.259Z,59.80
2022-11-28T12:31:59.909Z,60.60
2022-11-28T12:34:52.444Z,60.80
2022-11-28T12:37:32.971Z,60.30
2022-11-28T12:40:10.204Z,59.80
2022-11-28T12:42:50.396Z,58.40
2022-11-28T12:45:35.041Z,61.30
2022-11-28T12:48:23.885Z,60.90
2022-11-28T12:51:16.786Z,61.20
2022-11-28T12:53:59.680Z,58.90
2022-11-28T12:56:51.580Z,57.00
2022-11-28T12:59:52.729Z,58.50
2022-11-28T13:02:23.260Z,57.30
2022-11-28T13:05:10.605Z,56.90
2022-11-28T13:07:49.022Z,57.30
2022-11-28T13:10:33.486Z,56.80
2022-11-28T13:13:05.808Z,56.50
2022-11-28T13:15:47.199Z,54.60
2022-11-28T13:18:50.585Z,53.80
2022-11-28T13:21:39.936Z,53.80
2022-11-28T13:24:22.395Z,57.40
2022-11-28T13:27:09.500Z,54.80
2022-11-28T13:29:45.062Z,54.60
2022-11-28T13:32:21.316Z,52.70
2022-11-28T13:34:49.474Z,51.90
2022-11-28T13:41:00.498Z,53.40
2022-11-28T13:43:52.511Z,49.20
2022-11-28T13:46:20.476Z,50.90
2022-11-28T13:51:40.937Z,50.90
2022-11-28T13:54:17.979Z,53.80
2022-11-28T13:56:50.592Z,53.40
2022-11-28T13:59:21.135Z,54.40
2022-11-28T14:01:56.297Z,52.90
2022-11-28T14:04:24.818Z,51.60
2022-11-28T14:06:59.580Z,50.80
2022-11-28T14:09:47.680Z,52.60
2022-11-28T14:12:34.177Z,49.40
2022-11-28T14:15:07.556Z,52.20
2022-11-28T14:17:52.294Z,45.30
2022-11-28T14:20:31.343Z,52.90
2022-11-28T14:23:13.728Z,50.40
2022-11-28T14:25:44.597Z,50.50
2022-11-28T14:28:36.727Z,53.10
2022-11-28T14:31:10.998Z,50.70
2022-11-28T14:33:44.060Z,49.40
2022-11-28T14:36:35.948Z,51.00
2022-11-28T14:39:07.334Z,50.20
2022-11-28T14:42:04.924Z,51.20
2022-11-28T14:44:54.702Z,50.90
2022-11-28T14:47:24.246Z,55.20
2022-11-28T14:50:04.365Z,53.30
2022-11-28T14:52:41.772Z,52.60
2022-11-28T14:55:10.936Z,51.90
2022-11-28T14:58:00.145Z,52.60
2022-11-28T15:00:55.295Z,52.20
2022-11-28T15:03:50.693Z,57.30
2022-11-28T15:06:21.909Z,55.20
2022-11-28T15:09:34.975Z,50.50
2022-11-28T15:12:33.401Z,52.90
2022-11-28T15:15:01.534Z,54.90
2022-11-28T15:17:33.431Z,54.80
2022-11-28T15:20:09.253Z,54.80
2022-11-28T15:22:42.497Z,54.60
2022-11-28T15:25:27.556Z,53.60
2022-11-28T15:27:55.567Z,54.80
2022-11-28T15:30:26.607Z,53.40
2022-11-28T15:32:59.613Z,53.50
2022-11-28T15:35:27.885Z,55.30
2022-11-28T15:37:58.069Z,56.50
2022-11-28T15:40:29.323Z,52.60
2022-11-28T15:42:57.242Z,52.20
2022-11-28T15:45:27.746Z,54.80
2022-11-28T15:47:56.680Z,53.00
2022-11-28T15:50:33.896Z,55.20
2022-11-28T15:53:18.205Z,56.80
2022-11-28T15:55:46.735Z,54.20
2022-11-28T15:58:30.914Z,50.30
2022-11-28T16:01:09.871Z,54.90
2022-11-28T16:03:59.863Z,54.50
2022-11-28T16:06:34.288Z,54.00
2022-11-28T16:09:25.934Z,56.70
2022-11-28T16:11:54.166Z,50.30
2022-11-28T16:14:26.892Z,51.30
2022-11-28T16:16:55.624Z,54.20
2022-11-28T16:19:26.403Z,51.90
2022-11-28T16:21:59.760Z,50.20
2022-11-28T16:24:35.454Z,54.00
2022-11-28T16:27:06.299Z,50.20
2022-11-28T16:29:36.122Z,51.60
2022-11-28T16:32:29.398Z,49.90
2022-11-28T16:35:00.285Z,51.90
2022-11-28T16:37:30.029Z,50.10
2022-11-28T16:40:04.809Z,51.50
2022-11-28T16:42:34.194Z,50.30
2022-11-28T16:45:14.675Z,50.70
2022-11-28T16:47:44.209Z,49.10
2022-11-28T16:50:22.739Z,55.20
2022-11-28T16:52:55.533Z,51.70
2022-11-28T16:55:33.313Z,52.50
2022-11-28T16:58:07.571Z,49.80
2022-11-28T17:00:36.257Z,52.90
2022-11-28T17:03:07.184Z,51.80
2022-11-28T17:05:37.337Z,50.30
2022-11-28T17:08:05.045Z,51.80
2022-11-28T17:10:32.742Z,53.00
2022-11-28T17:13:00.408Z,53.20
2022-11-28T17:15:28.051Z,50.40
2022-11-28T17:17:57.230Z,50.00
2022-11-28T17:20:24.896Z,52.50
2022-11-28T17:22:56.368Z,50.80
2022-11-28T17:25:24.073Z,52.90
2022-11-28T17:27:53.430Z,51.10
2022-11-28T17:30:21.248Z,51.40
2022-11-28T17:32:49.018Z,51.10
2022-11-28T17:35:20.051Z,51.70
2022-11-28T17:37:47.866Z,50.80
2022-11-28T17:40:34.231Z,50.70
2022-11-28T17:43:02.466Z,50.80
2022-11-28T17:45:32.493Z,51.90
2022-11-28T17:48:00.216Z,51.90
2022-11-28T17:50:28.864Z,49.80
2022-11-28T17:52:56.590Z,50.70
2022-11-28T17:55:24.371Z,49.20
2022-11-28T17:57:54.078Z,49.00
2022-11-28T18:00:21.952Z,49.40
2022-11-28T18:02:49.811Z,47.10
2022-11-28T18:05:17.976Z,49.00
2022-11-28T18:07:45.690Z,46.90
2022-11-28T18:10:13.447Z,46.50
2022-11-28T18:12:41.621Z,47.00
2022-11-28T18:15:10.591Z,46.60
2022-11-28T18:17:39.092Z,47.60
2022-11-28T18:20:13.880Z,46.00
2022-11-28T18:22:41.646Z,45.00
2022-11-28T18:25:09.549Z,43.10
2022-11-28T18:27:37.369Z,43.10
2022-11-28T18:30:06.072Z,43.50
2022-11-28T18:32:33.859Z,42.60
2022-11-28T18:35:02.279Z,41.30
2022-11-28T18:37:30.242Z,42.40
2022-11-28T18:39:58.183Z,39.90
2022-11-28T18:42:26.034Z,41.90
2022-11-28T18:44:53.694Z,40.50
2022-11-28T18:47:21.433Z,41.80
2022-11-28T18:49:49.075Z,40.40
2022-11-28T18:52:17.158Z,42.30
2022-11-28T18:54:45.976Z,42.70
2022-11-28T18:57:14.638Z,41.00
2022-11-28T18:59:47.804Z,40.60
2022-11-28T19:02:19.290Z,38.30
2022-11-28T19:04:47.270Z,41.20
2022-11-28T19:07:14.944Z,40.30
2022-11-28T19:09:45.102Z,40.10
2022-11-28T19:12:13.526Z,38.40
2022-11-28T19:14:41.217Z,38.40
2022-11-28T19:17:08.960Z,39.00
2022-11-28T19:19:44.263Z,37.30
2022-11-28T19:22:12.183Z,37.10
2022-11-28T19:24:39.942Z,35.70
2022-11-28T19:27:13.825Z,39.50
2022-11-28T19:29:42.956Z,39.80
2022-11-28T19:32:11.156Z,38.70
2022-11-28T19:34:38.872Z,36.40
2022-11-28T19:37:06.520Z,36.60
2022-11-28T19:39:34.385Z,36.70
2022-11-28T19:42:02.395Z,37.80
2022-11-28T19:44:30.589Z,33.90
2022-11-28T19:46:59.000Z,35.80
2022-11-28T19:49:26.837Z,34.20
2022-11-28T19:51:54.735Z,37.30
2022-11-28T19:54:23.329Z,34.20
2022-11-28T19:56:53.884Z,32.40
2022-11-28T19:59:21.567Z,35.50
2022-11-28T20:01:50.184Z,34.20
2022-11-28T20:04:19.292Z,34.40
2022-11-28T20:06:46.915Z,36.90
2022-11-28T20:09:14.706Z,34.60
2022-11-28T20:11:43.655Z,35.20
2022-11-28T20:14:14.456Z,35.90
2022-11-28T20:16:42.605Z,34.70
2022-11-28T20:19:12.443Z,34.20
2022-11-28T20:21:40.328Z,35.50
2022-11-28T20:24:10.224Z,34.80
2022-11-28T20:26:40.765Z,34.10
2022-11-28T20:29:13.223Z,37.50
2022-11-28T20:31:46.373Z,34.40
2022-11-28T20:34:17.428Z,36.10
2022-11-28T20:36:46.278Z,33.90
2022-11-28T20:39:14.060Z,35.90
2022-11-28T20:41:41.672Z,34.40
2022-11-28T20:44:10.171Z,36.90
2022-11-28T20:46:38.215Z,34.30
2022-11-28T20:49:07.150Z,33.80
2022-11-28T20:51:35.634Z,35.20
2022-11-28T20:54:05.174Z,37.70
2022-11-28T20:57:04.963Z,36.00
2022-11-28T20:59:26.923Z,33.70
2022-11-28T21:01:54.672Z,35.30
2022-11-28T21:04:22.409Z,35.00
2022-11-28T21:06:50.135Z,35.90
2022-11-28T21:09:20.067Z,36.20
2022-11-28T21:11:58.165Z,36.10
2022-11-28T21:14:28.456Z,35.30
2022-11-28T21:16:57.363Z,35.60
2022-11-28T21:19:25.004Z,35.70
2022-11-28T21:21:52.814Z,36.80
2022-11-28T21:24:20.534Z,35.60
2022-11-28T21:26:53.047Z,37.50
2022-11-28T21:29:23.037Z,33.70
2022-11-28T21:31:50.830Z,34.10
2022-11-28T21:34:19.426Z,36.00
2022-11-28T21:36:47.643Z,37.40
2022-11-28T21:39:18.855Z,36.30
2022-11-28T21:41:46.729Z,38.60
2022-11-28T21:44:14.427Z,39.80
2022-11-28T21:46:42.190Z,36.30
2022-11-28T21:49:10.016Z,38.60
2022-11-28T21:51:40.537Z,36.60
2022-11-28T21:54:12.641Z,39.10
2022-11-28T21:56:41.051Z,38.30
2022-11-28T21:59:08.809Z,39.30
2022-11-28T22:01:36.500Z,40.40
2022-11-28T22:04:05.446Z,38.40
2022-11-28T22:06:33.793Z,38.40
2022-11-28T22:09:08.626Z,39.50
2022-11-28T22:11:38.438Z,38.30
2022-11-28T22:14:06.469Z,39.60
2022-11-28T22:16:34.731Z,39.00
2022-11-28T22:19:03.989Z,40.70
2022-11-28T22:24:19.481Z,39.20
2022-11-28T22:26:47.540Z,39.80
2022-11-28T22:29:15.557Z,38.90
2022-11-28T22:31:43.509Z,42.40
2022-11-28T22:34:11.840Z,37.50
2022-11-28T22:36:40.163Z,38.60
2022-11-28T22:39:10.858Z,42.30
2022-11-28T22:41:38.894Z,40.50
2022-11-28T22:44:06.539Z,41.90
2022-11-28T22:46:34.724Z,41.20
2022-11-28T22:49:03.546Z,44.60
2022-11-28T22:51:31.479Z,40.80
2022-11-28T22:54:01.070Z,40.40
2022-11-28T22:56:31.804Z,41.90
2022-11-28T22:59:00.428Z,41.00
2022-11-28T23:01:30.788Z,39.70
2022-11-28T23:03:59.316Z,40.10
2022-11-28T23:06:30.280Z,40.20
2022-11-28T23:08:59.139Z,42.20
2022-11-28T23:11:30.910Z,38.80
2022-11-28T23:14:00.186Z,41.30
2022-11-28T23:16:30.718Z,41.20
2022-11-28T23:19:00.981Z,43.20
2022-11-28T23:21:31.204Z,38.60
2022-11-28T23:23:59.512Z,39.80
2022-11-28T23:26:30.132Z,40.90
2022-11-28T23:29:00.647Z,42.30
2022-11-28T23:31:30.960Z,39.10
2022-11-28T23:33:59.312Z,40.40
2022-11-28T23:36:30.277Z,40.60
2022-11-28T23:39:01.808Z,42.10
2022-11-28T23:41:30.108Z,41.70
2022-11-28T23:43:58.672Z,41.50
2022-11-28T23:46:27.167Z,40.90
2022-11-28T23:48:54.928Z,41.80
2022-11-28T23:51:24.936Z,40.60
2022-11-28T23:53:53.140Z,41.20
2022-11-28T23:56:23.260Z,39.90
2022-11-28T23:58:51.441Z,39.40
